Terminal Aerodrome Forecast
Issued by NWS Pueblo, CO

Home | Current Version | Previous Version | Text Only | Print | Product List | Glossary On
Versions: 1 2 3 4 5 6 7 8 9 10 11 12 13 14 15 16 17 18 19 20 21 22 23 24 25 26 27 28 29 30 31 32 33 34 35 36
000
FTUS45 KPUB 231746
TAFCOS
TAF
KCOS 231746Z 2318/2418 11007KT P6SM FEW060 SCT110
     FM232100 15010KT P6SM VCSH SCT060 BKN090
     FM240200 12008KT P6SM FEW070 BKN100
     FM240500 35020G35KT P6SM VCSH SCT030 BKN090=

USA.gov is the U.S. government's official web portal to all federal, state and local government web resources and services.